createdAt,value
2023-09-17T00:00:10.857Z,21.6
2023-09-17T00:05:17.133Z,21.6
2023-09-17T00:10:23.402Z,21.6
2023-09-17T00:15:29.654Z,21.6
2023-09-17T00:20:35.928Z,21.6
2023-09-17T00:25:42.197Z,21.6
2023-09-17T00:30:47.424Z,21.6
2023-09-17T00:35:53.516Z,21.6
2023-09-17T00:40:59.608Z,21.6
2023-09-17T00:46:05.696Z,21.6
2023-09-17T00:51:11.804Z,21.6
2023-09-17T00:56:17.867Z,21.6
2023-09-17T01:01:23.959Z,21.6
2023-09-17T01:06:30.054Z,21.6
2023-09-17T01:11:36.145Z,21.6
2023-09-17T01:16:42.236Z,21.6
2023-09-17T01:21:48.338Z,21.6
2023-09-17T01:26:54.420Z,21.6
2023-09-17T01:32:00.513Z,21.5
2023-09-17T01:37:06.605Z,21.5
2023-09-17T01:42:12.685Z,21.5
2023-09-17T01:47:18.783Z,21.5
2023-09-17T01:52:24.863Z,21.5
2023-09-17T01:57:30.961Z,21.5
2023-09-17T02:02:37.067Z,21.5
2023-09-17T02:07:43.143Z,21.5
2023-09-17T02:12:49.235Z,21.5
2023-09-17T02:17:55.321Z,21.5
2023-09-17T02:23:01.406Z,21.5
2023-09-17T02:28:07.491Z,21.5
2023-09-17T02:33:13.573Z,21.5
2023-09-17T02:38:19.733Z,21.5
2023-09-17T02:43:25.874Z,21.5
2023-09-17T02:48:32.035Z,21.5
2023-09-17T02:53:38.182Z,21.5
2023-09-17T02:58:44.341Z,21.5
2023-09-17T03:03:50.598Z,21.5
2023-09-17T03:08:56.656Z,21.5
2023-09-17T03:14:02.798Z,21.5
2023-09-17T03:19:08.950Z,21.5
2023-09-17T03:24:15.105Z,21.4
2023-09-17T03:29:21.251Z,21.4
2023-09-17T03:34:27.407Z,21.4
2023-09-17T03:39:33.550Z,21.4
2023-09-17T03:44:39.820Z,21.4
2023-09-17T03:49:46.079Z,21.4
2023-09-17T03:54:52.350Z,21.4
2023-09-17T03:59:58.628Z,21.4
2023-09-17T04:05:04.874Z,21.4
2023-09-17T04:10:11.136Z,21.4
2023-09-17T04:15:17.403Z,21.4
2023-09-17T04:20:23.679Z,21.4
2023-09-17T04:25:29.936Z,21.4
2023-09-17T04:30:36.201Z,21.4
2023-09-17T04:35:42.476Z,21.4
2023-09-17T04:40:48.732Z,21.4
2023-09-17T04:45:55.004Z,21.4
2023-09-17T04:51:01.473Z,21.4
2023-09-17T04:56:07.938Z,21.4
2023-09-17T05:01:14.424Z,21.4
2023-09-17T05:06:20.889Z,21.4
2023-09-17T05:11:27.354Z,21.4
2023-09-17T05:16:33.830Z,21.4
2023-09-17T05:21:40.293Z,21.4
2023-09-17T05:26:46.780Z,21.4
2023-09-17T05:31:53.238Z,21.4
2023-09-17T05:36:59.705Z,21.4
2023-09-17T05:42:06.181Z,21.4
2023-09-17T05:47:12.646Z,21.4
2023-09-17T05:52:19.119Z,21.4
2023-09-17T05:57:26.131Z,21.4
2023-09-17T06:02:33.153Z,21.4
2023-09-17T06:07:40.138Z,21.4
2023-09-17T06:12:47.148Z,21.4
2023-09-17T06:17:54.159Z,21.4
2023-09-17T06:23:01.154Z,21.4
2023-09-17T06:28:08.217Z,21.4
2023-09-17T06:33:15.169Z,21.4
2023-09-17T06:38:22.221Z,21.4
2023-09-17T06:43:29.178Z,21.4
2023-09-17T06:48:36.181Z,21.4
2023-09-17T06:53:43.177Z,21.4
2023-09-17T06:58:50.192Z,21.4
2023-09-17T07:03:55.989Z,21.4
2023-09-17T07:09:02.138Z,21.4
2023-09-17T07:14:08.288Z,21.4
2023-09-17T07:19:14.449Z,21.4
2023-09-17T07:24:20.597Z,21.4
2023-09-17T07:29:26.809Z,21.4
2023-09-17T07:34:32.882Z,21.5
2023-09-17T07:39:39.108Z,21.5
2023-09-17T07:44:45.212Z,21.5
2023-09-17T07:49:51.348Z,21.5
2023-09-17T07:54:57.504Z,21.5
2023-09-17T08:00:03.657Z,21.5
2023-09-17T08:05:09.819Z,21.5
2023-09-17T08:10:14.974Z,21.5
2023-09-17T08:15:21.059Z,21.5
2023-09-17T08:20:27.151Z,21.5
2023-09-17T08:25:33.372Z,21.5
2023-09-17T08:30:39.413Z,21.5
2023-09-17T08:35:45.466Z,21.5
2023-09-17T08:40:51.505Z,21.5
2023-09-17T08:45:57.602Z,21.5
2023-09-17T08:51:03.742Z,21.5
2023-09-17T08:56:09.775Z,21.5
2023-09-17T09:01:15.866Z,21.6
2023-09-17T09:06:21.966Z,21.6
2023-09-17T09:11:28.050Z,21.6
2023-09-17T09:16:34.143Z,21.6
2023-09-17T09:21:40.225Z,21.6
2023-09-17T09:26:46.315Z,21.6
2023-09-17T09:31:52.513Z,21.6
2023-09-17T09:36:58.488Z,21.6
2023-09-17T09:42:04.575Z,21.6
2023-09-17T09:47:10.673Z,21.6
2023-09-17T09:52:16.765Z,21.6
2023-09-17T09:57:22.869Z,21.6
2023-09-17T10:07:35.035Z,21.7
2023-09-17T10:12:41.134Z,21.7
2023-09-17T10:17:47.276Z,21.7
2023-09-17T10:22:53.430Z,21.7
2023-09-17T10:27:59.593Z,21.7
2023-09-17T10:33:05.733Z,21.7
2023-09-17T10:38:11.883Z,21.7
2023-09-17T10:43:18.030Z,21.7
2023-09-17T10:48:24.182Z,21.7
2023-09-17T10:53:30.338Z,21.7
2023-09-17T10:58:36.487Z,21.7
2023-09-17T11:03:42.632Z,21.8
2023-09-17T11:08:48.801Z,21.8
2023-09-17T11:13:54.946Z,21.8
2023-09-17T11:19:01.092Z,21.8
2023-09-17T11:24:07.362Z,21.8
2023-09-17T11:29:13.628Z,21.8
2023-09-17T11:34:19.890Z,21.8
2023-09-17T11:39:26.163Z,21.8
2023-09-17T11:44:32.419Z,21.8
2023-09-17T11:49:38.710Z,21.8
2023-09-17T11:54:44.976Z,21.8
2023-09-17T11:59:51.230Z,21.8
2023-09-17T12:04:56.460Z,21.8
2023-09-17T12:10:02.534Z,21.8
2023-09-17T12:15:08.709Z,21.9
2023-09-17T12:20:14.737Z,21.9
2023-09-17T12:25:20.913Z,21.9
2023-09-17T12:30:26.935Z,21.9
2023-09-17T12:35:32.996Z,21.9
2023-09-17T12:40:39.087Z,21.9
2023-09-17T12:45:45.191Z,21.9
2023-09-17T12:50:51.264Z,21.9
2023-09-17T12:55:57.360Z,21.9
2023-09-17T13:01:03.448Z,22
2023-09-17T13:06:09.535Z,22
2023-09-17T13:11:15.623Z,22
2023-09-17T13:16:21.706Z,22
2023-09-17T13:21:27.802Z,22
2023-09-17T13:26:33.896Z,22.1
2023-09-17T13:31:39.980Z,22.1
2023-09-17T13:36:46.077Z,22.1
2023-09-17T13:41:52.165Z,22.1
2023-09-17T13:46:58.251Z,22.1
2023-09-17T13:52:04.340Z,22.1
2023-09-17T13:57:10.441Z,22.1
2023-09-17T14:02:16.518Z,22.2
2023-09-17T14:07:22.607Z,22.4
2023-09-17T14:12:28.867Z,22.4
2023-09-17T14:17:34.909Z,22.5
2023-09-17T14:22:41.107Z,22.6
2023-09-17T14:27:47.211Z,22.5
2023-09-17T14:32:53.356Z,22.5
2023-09-17T14:37:59.515Z,22.5
2023-09-17T14:43:05.772Z,22.5
2023-09-17T14:48:11.869Z,22.5
2023-09-17T14:53:17.967Z,22.5
2023-09-17T14:58:24.131Z,22.5
2023-09-17T15:03:30.276Z,22.5
2023-09-17T15:08:36.419Z,22.5
2023-09-17T15:13:42.574Z,22.5
2023-09-17T15:18:48.843Z,22.5
2023-09-17T15:23:55.112Z,22.5
2023-09-17T15:29:01.369Z,22.5
2023-09-17T15:34:07.645Z,22.5
2023-09-17T15:39:13.909Z,22.5
2023-09-17T15:44:20.186Z,22.5
2023-09-17T15:49:26.452Z,22.4
2023-09-17T15:54:32.700Z,22.4
2023-09-17T15:59:39.058Z,22.4
2023-09-17T16:04:45.221Z,22.4
2023-09-17T16:09:51.506Z,22.4
2023-09-17T16:14:57.800Z,22.3
2023-09-17T16:20:04.022Z,22.3
2023-09-17T16:25:10.505Z,22.3
2023-09-17T16:30:17.090Z,22.3
2023-09-17T16:35:23.439Z,22.3
2023-09-17T16:40:29.920Z,22.2
2023-09-17T16:45:36.560Z,22.2
2023-09-17T16:50:42.855Z,22.2
2023-09-17T16:55:49.315Z,22.2
2023-09-17T17:00:55.792Z,22.2
2023-09-17T17:06:02.272Z,22.2
2023-09-17T17:11:08.738Z,22.2
2023-09-17T17:16:15.205Z,22.2
2023-09-17T17:21:21.681Z,22.2
2023-09-17T17:26:28.152Z,22.1
2023-09-17T17:31:35.165Z,22.1
2023-09-17T17:36:42.168Z,22.1
2023-09-17T17:41:49.169Z,22.1
2023-09-17T17:46:56.208Z,22.1
2023-09-17T17:52:03.187Z,22.1
2023-09-17T17:57:10.189Z,22.1
2023-09-17T18:02:17.196Z,22.1
2023-09-17T18:07:24.192Z,22.1
2023-09-17T18:12:31.201Z,22.1
2023-09-17T18:17:38.201Z,22.1
2023-09-17T18:22:45.274Z,22.1
2023-09-17T18:27:52.213Z,22.1
2023-09-17T18:32:59.217Z,22
2023-09-17T18:38:07.064Z,22
2023-09-17T18:43:14.900Z,22
2023-09-17T18:48:22.732Z,22
2023-09-17T18:53:30.555Z,22
2023-09-17T18:58:38.374Z,22
2023-09-17T19:03:46.212Z,22
2023-09-17T19:08:54.036Z,22
2023-09-17T19:14:01.856Z,22
2023-09-17T19:19:09.691Z,22
2023-09-17T19:24:17.520Z,22
2023-09-17T19:29:25.345Z,22
2023-09-17T19:34:33.242Z,22
2023-09-17T19:39:41.046Z,22
2023-09-17T19:44:48.843Z,22
2023-09-17T19:49:56.676Z,22
2023-09-17T19:55:04.520Z,22
2023-09-17T20:05:20.168Z,22
2023-09-17T20:10:27.998Z,22
2023-09-17T20:15:35.886Z,21.9
2023-09-17T20:20:43.642Z,22
2023-09-17T20:25:51.480Z,21.9
2023-09-17T20:30:57.706Z,21.9
2023-09-17T20:36:03.785Z,21.9
2023-09-17T20:41:09.875Z,21.9
2023-09-17T20:46:15.969Z,21.9
2023-09-17T20:51:22.058Z,21.9
2023-09-17T20:56:28.239Z,21.9
2023-09-17T21:01:34.301Z,21.9
2023-09-17T21:06:40.582Z,21.9
2023-09-17T21:11:46.413Z,21.9
2023-09-17T21:16:52.518Z,21.9
2023-09-17T21:21:58.588Z,21.9
2023-09-17T21:27:04.676Z,21.9
2023-09-17T21:32:10.772Z,21.9
2023-09-17T21:37:16.852Z,21.9
2023-09-17T21:42:22.949Z,21.9
2023-09-17T21:47:29.038Z,21.9
2023-09-17T21:52:35.117Z,21.9
2023-09-17T21:57:41.230Z,21.9
2023-09-17T22:02:47.299Z,21.9
2023-09-17T22:07:53.468Z,21.9
2023-09-17T22:12:59.503Z,21.9
2023-09-17T22:18:05.579Z,21.9
2023-09-17T22:23:11.663Z,21.9
2023-09-17T22:28:17.748Z,21.9
2023-09-17T22:33:23.945Z,21.8
2023-09-17T22:38:29.995Z,21.8
2023-09-17T22:43:36.142Z,21.8
2023-09-17T22:48:42.288Z,21.8
2023-09-17T22:53:48.457Z,21.8
2023-09-17T22:58:54.595Z,21.8
2023-09-17T23:04:00.749Z,21.8
2023-09-17T23:09:06.918Z,21.8
2023-09-17T23:14:13.059Z,21.8
2023-09-17T23:19:19.204Z,21.8
2023-09-17T23:24:25.359Z,21.8
2023-09-17T23:29:31.513Z,21.8
2023-09-17T23:34:37.661Z,21.8
2023-09-17T23:39:43.817Z,21.8
2023-09-17T23:44:50.084Z,21.8
2023-09-17T23:49:56.351Z,21.8
2023-09-17T23:55:02.614Z,21.8
